createdAt,value
2018-06-29T00:00:52.717Z,2.30
2018-06-29T00:01:53.038Z,2.30
2018-06-29T00:02:53.014Z,2.20
2018-06-29T00:03:53.186Z,2.30
2018-06-29T00:04:53.361Z,2.30
2018-06-29T00:05:53.537Z,2.10
2018-06-29T00:06:53.711Z,2.30
2018-06-29T00:07:53.884Z,2.10
2018-06-29T00:08:54.061Z,2.20
2018-06-29T00:10:46.313Z,2.40
2018-06-29T00:11:46.485Z,2.50
2018-06-29T00:12:46.665Z,2.50
2018-06-29T00:13:46.830Z,2.30
2018-06-29T00:14:47.000Z,2.40
2018-06-29T00:15:47.174Z,2.60
2018-06-29T00:16:47.348Z,2.40
2018-06-29T00:17:47.518Z,2.30
2018-06-29T00:18:47.689Z,2.30
2018-06-29T00:19:47.867Z,2.40
2018-06-29T00:20:48.050Z,2.30
2018-06-29T00:21:48.219Z,2.30
2018-06-29T00:22:48.386Z,2.40
2018-06-29T00:23:48.561Z,2.30
2018-06-29T00:24:48.731Z,2.30
2018-06-29T00:25:48.903Z,2.20
2018-06-29T00:26:49.077Z,2.40
2018-06-29T00:27:49.247Z,2.50
2018-06-29T00:28:49.416Z,2.10
2018-06-29T00:29:49.595Z,2.30
2018-06-29T00:30:49.764Z,2.40
2018-06-29T00:31:49.944Z,2.30
2018-06-29T00:32:50.116Z,2.30
2018-06-29T00:33:50.286Z,2.40
2018-06-29T00:34:50.468Z,2.30
2018-06-29T00:35:50.636Z,2.30
2018-06-29T00:36:50.882Z,2.30
2018-06-29T00:37:50.981Z,2.30
2018-06-29T00:38:51.154Z,2.30
2018-06-29T00:39:51.326Z,2.30
2018-06-29T00:40:51.506Z,2.40
2018-06-29T00:41:51.674Z,2.80
2018-06-29T00:42:51.848Z,2.60
2018-06-29T00:43:52.021Z,2.80
2018-06-29T00:44:52.196Z,2.70
2018-06-29T00:45:52.399Z,2.50
2018-06-29T00:46:52.564Z,2.70
2018-06-29T00:47:52.734Z,2.80
2018-06-29T00:48:52.912Z,2.60
2018-06-29T00:49:53.086Z,2.60
2018-06-29T00:50:53.267Z,2.60
2018-06-29T00:51:53.435Z,2.60
2018-06-29T00:52:53.613Z,2.50
2018-06-29T00:53:53.785Z,2.80
2018-06-29T00:54:53.952Z,2.40
2018-06-29T00:55:54.128Z,2.70
2018-06-29T00:56:54.297Z,2.40
2018-06-29T00:57:54.478Z,2.60
2018-06-29T00:58:54.651Z,2.80
2018-06-29T00:59:54.824Z,2.60
2018-06-29T01:00:55.008Z,2.50
2018-06-29T01:01:55.175Z,2.60
2018-06-29T01:02:55.740Z,2.50
2018-06-29T01:03:56.813Z,2.50
2018-06-29T01:04:55.696Z,2.60
2018-06-29T01:05:56.272Z,2.40
2018-06-29T01:06:56.496Z,2.50
2018-06-29T01:07:56.816Z,3.20
2018-06-29T01:08:56.783Z,2.50
2018-06-29T01:09:57.000Z,2.70
2018-06-29T01:10:57.148Z,2.80
2018-06-29T01:11:57.265Z,2.60
2018-06-29T01:12:57.455Z,2.50
2018-06-29T01:13:57.208Z,2.60
2018-06-29T01:14:57.382Z,3.00
2018-06-29T01:15:57.545Z,2.70
2018-06-29T01:16:57.839Z,2.90
2018-06-29T01:17:57.892Z,3.40
2018-06-29T01:18:58.061Z,2.90
2018-06-29T01:19:58.237Z,2.80
2018-06-29T01:20:58.407Z,2.80
2018-06-29T01:21:58.578Z,2.90
2018-06-29T01:22:58.745Z,2.80
2018-06-29T01:23:58.919Z,2.80
2018-06-29T01:24:59.099Z,3.00
2018-06-29T01:25:59.275Z,2.60
2018-06-29T01:26:59.447Z,2.80
2018-06-29T01:27:59.613Z,3.00
2018-06-29T01:28:59.783Z,2.70
2018-06-29T01:29:59.953Z,2.80
2018-06-29T01:31:00.127Z,3.00
2018-06-29T01:32:00.294Z,2.60
2018-06-29T01:33:00.468Z,2.60
2018-06-29T01:34:00.637Z,3.00
2018-06-29T01:35:00.814Z,2.80
2018-06-29T01:36:00.987Z,2.70
2018-06-29T01:37:01.162Z,3.00
2018-06-29T01:38:01.340Z,2.50
2018-06-29T01:39:01.520Z,2.90
2018-06-29T01:40:01.692Z,2.80
2018-06-29T01:41:01.863Z,2.80
2018-06-29T01:42:02.029Z,2.60
2018-06-29T01:43:02.200Z,2.60
2018-06-29T01:44:02.375Z,2.80
2018-06-29T01:45:02.545Z,2.70
2018-06-29T01:46:02.712Z,2.90
2018-06-29T01:47:02.890Z,2.80
2018-06-29T01:48:03.062Z,2.50
2018-06-29T01:49:03.234Z,2.80
2018-06-29T01:50:03.407Z,2.90
2018-06-29T01:51:03.577Z,2.60
2018-06-29T01:52:03.744Z,2.90
2018-06-29T01:53:03.913Z,2.70
2018-06-29T01:54:04.085Z,2.60
2018-06-29T01:55:04.264Z,2.80
2018-06-29T01:56:04.429Z,2.70
2018-06-29T01:57:04.605Z,2.60
2018-06-29T01:58:04.777Z,2.70
2018-06-29T01:59:04.951Z,2.90
2018-06-29T02:00:05.128Z,2.70
2018-06-29T02:01:05.297Z,2.90
2018-06-29T02:02:05.470Z,2.70
2018-06-29T02:03:05.649Z,2.80
2018-06-29T02:04:05.815Z,2.70
2018-06-29T02:05:05.992Z,2.50
2018-06-29T02:06:06.161Z,2.80
2018-06-29T02:07:06.333Z,2.60
2018-06-29T02:08:06.564Z,2.60
2018-06-29T02:09:06.676Z,2.70
2018-06-29T02:10:06.844Z,2.50
2018-06-29T02:11:07.017Z,2.60
2018-06-29T02:12:07.185Z,2.50
2018-06-29T02:13:07.355Z,2.80
2018-06-29T02:14:07.534Z,2.60
2018-06-29T02:15:07.701Z,2.60
2018-06-29T02:16:07.873Z,2.60
2018-06-29T02:17:08.039Z,2.70
2018-06-29T02:18:08.217Z,2.70
2018-06-29T02:19:08.399Z,2.80
2018-06-29T02:20:08.579Z,2.50
2018-06-29T02:21:08.745Z,2.60
2018-06-29T02:22:08.912Z,2.60
2018-06-29T02:23:09.085Z,2.40
2018-06-29T02:24:09.258Z,2.60
2018-06-29T02:25:09.430Z,2.40
2018-06-29T02:26:09.606Z,2.40
2018-06-29T02:27:09.772Z,2.70
2018-06-29T02:28:09.950Z,2.50
2018-06-29T02:29:10.144Z,2.60
2018-06-29T02:30:10.299Z,2.40
2018-06-29T02:31:10.470Z,2.40
2018-06-29T02:32:10.645Z,2.40
2018-06-29T02:33:10.816Z,2.90
2018-06-29T02:34:10.995Z,2.80
2018-06-29T02:35:11.161Z,3.60
2018-06-29T02:36:11.345Z,3.30
2018-06-29T02:37:11.528Z,3.50
2018-06-29T02:38:11.694Z,3.30
2018-06-29T02:39:11.871Z,3.20
2018-06-29T02:40:12.050Z,3.30
2018-06-29T02:41:12.207Z,2.80
2018-06-29T02:42:12.385Z,3.10
2018-06-29T02:43:12.564Z,3.10
2018-06-29T02:44:12.734Z,3.00
2018-06-29T02:45:12.912Z,3.20
2018-06-29T02:46:13.088Z,3.80
2018-06-29T02:47:13.257Z,3.10
2018-06-29T02:48:13.431Z,3.20
2018-06-29T02:49:13.601Z,3.00
2018-06-29T02:50:13.774Z,3.20
2018-06-29T02:51:13.948Z,2.90
2018-06-29T02:52:14.123Z,3.20
2018-06-29T02:53:14.290Z,3.30
2018-06-29T02:54:14.464Z,2.80
2018-06-29T02:55:14.637Z,2.90
2018-06-29T02:56:14.806Z,2.90
2018-06-29T02:57:14.975Z,2.60
2018-06-29T02:58:15.146Z,2.70
2018-06-29T02:59:15.320Z,2.90
2018-06-29T03:00:15.494Z,2.50
2018-06-29T03:01:15.664Z,2.60
2018-06-29T03:02:15.841Z,2.70
2018-06-29T03:03:16.011Z,2.50
2018-06-29T03:04:16.191Z,2.80
2018-06-29T03:05:16.364Z,2.60
2018-06-29T03:06:16.536Z,2.60
2018-06-29T03:07:16.705Z,2.30
2018-06-29T03:08:16.880Z,2.40
2018-06-29T03:09:17.049Z,2.30
2018-06-29T03:10:17.222Z,2.50
2018-06-29T03:11:17.389Z,2.30
2018-06-29T03:12:17.566Z,2.80
2018-06-29T03:13:17.734Z,2.40
2018-06-29T03:14:17.908Z,2.20
2018-06-29T03:15:18.090Z,2.60
2018-06-29T03:16:18.255Z,2.10
2018-06-29T03:17:18.436Z,2.30
2018-06-29T03:18:18.606Z,2.60
2018-06-29T03:19:18.779Z,2.60
2018-06-29T03:20:18.947Z,2.50
2018-06-29T03:21:19.116Z,2.70
2018-06-29T03:22:19.291Z,2.70
2018-06-29T03:23:19.471Z,2.40
2018-06-29T03:24:19.643Z,2.50
2018-06-29T03:25:19.886Z,2.60
2018-06-29T03:26:19.987Z,2.20
2018-06-29T03:27:20.157Z,2.30
2018-06-29T03:28:20.323Z,2.20
2018-06-29T03:29:20.493Z,2.20
2018-06-29T03:30:20.670Z,2.20
2018-06-29T03:31:20.846Z,2.20
2018-06-29T03:32:21.021Z,2.10
2018-06-29T03:33:21.190Z,2.40
2018-06-29T03:34:21.367Z,2.20
2018-06-29T03:35:21.541Z,2.00
2018-06-29T03:36:21.722Z,2.40
2018-06-29T03:37:21.885Z,2.60
2018-06-29T03:38:22.057Z,2.10
2018-06-29T03:39:22.224Z,2.00
2018-06-29T03:40:22.467Z,2.20
2018-06-29T03:41:22.563Z,2.20
2018-06-29T03:42:22.742Z,2.10
2018-06-29T03:43:22.920Z,2.20
2018-06-29T03:44:23.087Z,2.00
2018-06-29T03:45:23.259Z,2.10
2018-06-29T03:46:23.432Z,2.00
2018-06-29T03:47:23.597Z,2.30
2018-06-29T03:48:23.774Z,2.10
2018-06-29T03:49:23.973Z,2.00
2018-06-29T03:50:24.114Z,2.40
2018-06-29T03:51:24.286Z,2.00
2018-06-29T03:52:24.460Z,2.20
2018-06-29T03:53:24.631Z,2.20
2018-06-29T03:54:24.803Z,2.00
2018-06-29T03:55:24.967Z,2.10
2018-06-29T03:56:25.146Z,2.20
2018-06-29T03:57:25.320Z,2.40
2018-06-29T03:58:25.485Z,2.10
2018-06-29T03:59:25.657Z,2.10
2018-06-29T04:00:25.834Z,2.20
2018-06-29T04:01:26.004Z,2.10
2018-06-29T04:02:26.184Z,1.90
2018-06-29T04:03:26.365Z,2.00
2018-06-29T04:04:26.537Z,2.00
2018-06-29T04:05:26.704Z,2.10
2018-06-29T04:06:26.876Z,2.00
2018-06-29T04:07:27.061Z,2.10
2018-06-29T04:08:27.236Z,1.80
2018-06-29T04:09:27.408Z,2.00
2018-06-29T04:10:27.587Z,2.10
2018-06-29T04:11:27.756Z,1.90
2018-06-29T04:12:27.937Z,2.00
2018-06-29T04:13:28.089Z,2.20
2018-06-29T04:14:28.267Z,2.00
2018-06-29T04:15:28.435Z,2.10
2018-06-29T04:16:28.606Z,2.20
2018-06-29T04:17:28.778Z,2.10
2018-06-29T04:18:28.947Z,2.30
2018-06-29T04:19:29.123Z,2.10
2018-06-29T04:20:29.295Z,2.00
2018-06-29T04:21:29.466Z,2.30
2018-06-29T04:22:29.636Z,2.30
2018-06-29T04:23:29.806Z,2.10
2018-06-29T04:24:29.989Z,2.10
2018-06-29T04:25:30.164Z,2.20
2018-06-29T04:26:30.416Z,1.90
2018-06-29T04:27:30.508Z,2.10
2018-06-29T04:28:30.678Z,2.00
2018-06-29T04:29:30.849Z,1.90
2018-06-29T04:30:31.025Z,1.90
2018-06-29T04:31:31.196Z,2.00
2018-06-29T04:32:31.373Z,1.90
2018-06-29T04:33:31.546Z,2.00
2018-06-29T04:34:31.715Z,1.80
2018-06-29T04:35:31.890Z,2.10
2018-06-29T04:36:32.070Z,1.90
2018-06-29T04:37:32.248Z,2.20
2018-06-29T04:38:32.414Z,1.80
2018-06-29T04:39:32.586Z,1.90
2018-06-29T04:40:32.755Z,1.60
2018-06-29T04:41:32.928Z,2.10
2018-06-29T04:42:33.107Z,2.10
2018-06-29T04:43:33.274Z,2.00
2018-06-29T04:44:33.443Z,1.90
2018-06-29T04:45:33.617Z,2.10
2018-06-29T04:46:33.791Z,2.00
2018-06-29T04:47:33.962Z,1.90
2018-06-29T04:48:34.135Z,2.00
2018-06-29T04:49:34.308Z,1.90
2018-06-29T04:50:34.473Z,2.00
2018-06-29T04:51:34.644Z,2.00
2018-06-29T04:52:34.822Z,1.80
2018-06-29T04:53:34.993Z,2.00
2018-06-29T04:54:35.162Z,2.10
2018-06-29T04:55:35.337Z,2.30
2018-06-29T04:56:35.507Z,2.30
2018-06-29T04:57:35.674Z,1.80
2018-06-29T04:58:35.854Z,1.90
2018-06-29T04:59:36.022Z,1.90
2018-06-29T05:00:36.194Z,1.90
2018-06-29T05:01:36.375Z,2.00
2018-06-29T05:02:36.543Z,2.10
2018-06-29T05:03:36.715Z,2.00
2018-06-29T05:04:36.881Z,2.00
2018-06-29T05:05:37.056Z,2.10
2018-06-29T05:06:37.229Z,1.80
2018-06-29T05:07:37.408Z,2.30
2018-06-29T05:08:37.572Z,2.10
2018-06-29T05:09:37.744Z,2.00
2018-06-29T05:10:37.913Z,1.90
2018-06-29T05:11:38.083Z,1.80
2018-06-29T05:12:38.258Z,2.10
2018-06-29T05:13:38.440Z,2.10
2018-06-29T05:14:38.616Z,2.10
2018-06-29T05:15:38.788Z,2.20
2018-06-29T05:16:38.962Z,1.80
2018-06-29T05:17:39.136Z,2.00
2018-06-29T05:18:39.305Z,1.80
2018-06-29T05:19:39.475Z,2.30
2018-06-29T05:20:39.642Z,2.10
2018-06-29T05:21:39.821Z,1.90
2018-06-29T05:22:39.997Z,1.80
2018-06-29T05:23:40.168Z,1.90
2018-06-29T05:24:40.344Z,2.20
2018-06-29T05:25:40.931Z,1.80
2018-06-29T05:26:41.154Z,1.90
2018-06-29T05:27:40.900Z,1.90
2018-06-29T05:28:41.168Z,2.10
2018-06-29T05:29:41.244Z,2.10
2018-06-29T05:30:41.411Z,2.40
2018-06-29T05:31:41.580Z,2.70
2018-06-29T05:32:41.757Z,2.80
2018-06-29T05:33:41.932Z,3.10
2018-06-29T05:34:42.097Z,2.80
2018-06-29T05:35:42.275Z,2.90
2018-06-29T05:36:42.448Z,3.00
2018-06-29T05:37:42.622Z,2.90
2018-06-29T05:38:42.798Z,3.10
2018-06-29T05:39:42.976Z,3.00
2018-06-29T05:40:43.146Z,3.10
2018-06-29T05:41:43.389Z,2.90
2018-06-29T05:42:43.581Z,2.50
2018-06-29T05:43:43.663Z,3.10
2018-06-29T05:44:43.837Z,2.60
2018-06-29T05:45:44.009Z,2.90
2018-06-29T05:46:44.182Z,2.80
2018-06-29T05:47:44.350Z,3.30
2018-06-29T05:48:44.525Z,3.00
2018-06-29T05:49:44.720Z,2.90
2018-06-29T05:50:44.877Z,2.50
2018-06-29T05:51:45.072Z,2.60
2018-06-29T05:52:45.227Z,2.60
2018-06-29T05:53:45.401Z,2.60
2018-06-29T05:54:45.568Z,2.70
2018-06-29T05:55:45.746Z,2.50
2018-06-29T05:56:45.917Z,2.60
2018-06-29T05:57:46.096Z,2.30
2018-06-29T05:58:46.263Z,2.80
2018-06-29T05:59:46.436Z,2.30
2018-06-29T06:00:46.608Z,2.60
2018-06-29T06:01:46.782Z,2.70
2018-06-29T06:02:46.954Z,2.70
2018-06-29T06:03:47.125Z,2.50
2018-06-29T06:04:47.368Z,2.30
2018-06-29T06:05:47.477Z,2.30
2018-06-29T06:06:47.650Z,2.50
2018-06-29T06:07:47.827Z,2.50
2018-06-29T06:08:48.003Z,2.20
2018-06-29T06:09:48.176Z,2.60
2018-06-29T06:10:48.352Z,2.60
2018-06-29T06:11:48.527Z,2.50
2018-06-29T06:12:48.705Z,2.30
2018-06-29T06:13:48.889Z,2.10
2018-06-29T06:14:49.059Z,2.60
2018-06-29T06:15:49.237Z,2.50
2018-06-29T06:16:49.406Z,2.50
2018-06-29T06:17:49.585Z,2.40
2018-06-29T06:18:49.764Z,2.50
2018-06-29T06:19:49.938Z,2.30
2018-06-29T06:20:50.107Z,1.80
2018-06-29T06:21:50.314Z,2.10
2018-06-29T06:22:50.455Z,2.10
2018-06-29T06:23:50.628Z,2.20
2018-06-29T06:24:50.798Z,2.30
2018-06-29T06:25:50.976Z,1.90
2018-06-29T06:26:51.147Z,1.90
2018-06-29T06:27:51.318Z,1.90
2018-06-29T06:28:51.493Z,2.10
2018-06-29T06:29:51.665Z,2.00
2018-06-29T06:30:51.836Z,1.70
2018-06-29T06:31:52.011Z,2.40
2018-06-29T06:32:52.184Z,1.90
2018-06-29T06:33:52.360Z,1.60
2018-06-29T06:34:52.533Z,1.70
2018-06-29T06:35:52.708Z,1.90
2018-06-29T06:36:52.879Z,2.00
2018-06-29T06:37:53.055Z,1.70
2018-06-29T06:38:53.233Z,1.90
2018-06-29T06:39:53.407Z,1.80
2018-06-29T06:40:53.581Z,1.80
2018-06-29T06:41:53.759Z,1.80
2018-06-29T06:42:53.929Z,1.70
2018-06-29T06:43:54.101Z,1.90
2018-06-29T06:44:54.274Z,2.10
2018-06-29T06:45:54.459Z,2.00
2018-06-29T06:46:54.672Z,1.80
2018-06-29T06:47:54.795Z,1.80
2018-06-29T06:48:54.975Z,2.00
2018-06-29T06:49:55.146Z,1.80
2018-06-29T06:50:55.318Z,1.80
2018-06-29T06:51:55.489Z,1.90
2018-06-29T06:52:55.673Z,1.80
2018-06-29T06:53:55.853Z,1.90
2018-06-29T06:54:56.023Z,2.10
2018-06-29T06:55:56.202Z,1.90
2018-06-29T06:56:56.374Z,1.70
2018-06-29T06:57:56.548Z,1.80
2018-06-29T06:58:56.721Z,1.60
2018-06-29T06:59:56.890Z,1.70
2018-06-29T07:00:57.064Z,1.60
2018-06-29T07:01:57.240Z,1.70
2018-06-29T07:02:57.436Z,1.60
2018-06-29T07:03:57.607Z,1.80
2018-06-29T07:04:57.785Z,1.60
2018-06-29T07:05:57.964Z,1.90
2018-06-29T07:06:58.137Z,1.70
2018-06-29T07:07:58.316Z,1.80
2018-06-29T07:08:58.486Z,1.80
2018-06-29T07:09:58.657Z,2.00
2018-06-29T07:10:58.832Z,1.70
2018-06-29T07:11:59.003Z,1.60
2018-06-29T07:12:59.224Z,1.80
2018-06-29T07:13:59.334Z,1.80
2018-06-29T07:14:59.512Z,1.70
2018-06-29T07:15:59.680Z,1.60
2018-06-29T07:16:59.857Z,1.50
2018-06-29T07:18:00.027Z,1.60
2018-06-29T07:19:00.207Z,1.70
2018-06-29T07:20:00.377Z,1.50
2018-06-29T07:21:00.562Z,1.70
2018-06-29T07:22:00.736Z,1.70
2018-06-29T07:23:00.914Z,1.50
2018-06-29T07:24:01.081Z,1.60
2018-06-29T07:25:01.254Z,1.60
2018-06-29T07:26:01.434Z,1.50
2018-06-29T07:27:01.607Z,1.40
2018-06-29T07:28:01.799Z,1.50
2018-06-29T07:29:01.968Z,1.50
2018-06-29T07:30:02.156Z,1.70
2018-06-29T07:31:02.315Z,1.70
2018-06-29T07:32:02.484Z,1.80
2018-06-29T07:33:02.660Z,1.70
2018-06-29T07:34:02.836Z,1.50
2018-06-29T07:35:03.007Z,1.80
2018-06-29T07:36:03.182Z,1.50
2018-06-29T07:37:03.351Z,1.60
2018-06-29T07:38:03.525Z,1.60
2018-06-29T07:39:03.701Z,1.70
2018-06-29T07:40:03.874Z,1.40
2018-06-29T07:41:04.051Z,1.50
2018-06-29T07:42:04.219Z,1.60
2018-06-29T07:43:04.399Z,1.60
2018-06-29T07:44:04.575Z,1.50
2018-06-29T07:45:04.747Z,1.40
2018-06-29T07:46:04.915Z,1.50
2018-06-29T07:47:05.100Z,1.50
2018-06-29T07:48:05.272Z,1.50
2018-06-29T07:49:05.451Z,1.30
2018-06-29T07:50:05.630Z,1.60
2018-06-29T07:51:05.798Z,1.50
2018-06-29T07:52:05.981Z,1.70
2018-06-29T07:53:06.150Z,1.60
2018-06-29T07:54:06.330Z,1.30
2018-06-29T07:55:06.503Z,1.40
2018-06-29T07:56:06.730Z,1.40
2018-06-29T07:57:06.853Z,1.30
2018-06-29T07:58:07.091Z,1.20
2018-06-29T07:59:07.221Z,1.40
2018-06-29T08:00:07.378Z,1.20
2018-06-29T08:01:07.554Z,1.30
2018-06-29T08:02:07.727Z,1.20
2018-06-29T08:03:07.916Z,1.30
2018-06-29T08:04:08.095Z,1.40
2018-06-29T08:05:08.277Z,1.20
2018-06-29T08:06:08.452Z,1.30
2018-06-29T08:07:08.628Z,1.20
2018-06-29T08:08:08.844Z,1.40
2018-06-29T08:09:08.973Z,1.10
2018-06-29T08:10:09.155Z,1.30
2018-06-29T08:11:09.336Z,1.30
2018-06-29T08:12:09.512Z,1.70
2018-06-29T08:13:09.687Z,1.40
2018-06-29T08:14:09.876Z,1.20
2018-06-29T08:15:10.045Z,1.40
2018-06-29T08:16:10.214Z,1.20
2018-06-29T08:17:10.392Z,1.30
2018-06-29T08:18:10.563Z,1.50
2018-06-29T08:19:10.736Z,1.30
2018-06-29T08:20:10.920Z,1.40
2018-06-29T08:21:11.097Z,1.20
2018-06-29T08:22:11.271Z,1.20
2018-06-29T08:23:11.449Z,1.40
2018-06-29T08:24:11.625Z,1.40
2018-06-29T08:25:11.811Z,1.40
2018-06-29T08:26:11.975Z,1.20
2018-06-29T08:27:12.151Z,1.40
2018-06-29T08:28:12.330Z,1.40
2018-06-29T08:29:12.503Z,1.30
2018-06-29T08:30:12.672Z,1.30
2018-06-29T08:31:12.852Z,1.30
2018-06-29T08:32:13.026Z,1.10
2018-06-29T08:33:13.203Z,1.40
2018-06-29T08:34:13.378Z,1.50
2018-06-29T08:35:13.555Z,1.10
2018-06-29T08:36:13.728Z,1.20
2018-06-29T08:37:13.909Z,1.20
2018-06-29T08:38:14.085Z,1.40
2018-06-29T08:39:14.260Z,1.20
2018-06-29T08:40:14.435Z,1.30
2018-06-29T08:41:14.611Z,1.40
2018-06-29T08:42:14.785Z,1.20
2018-06-29T08:43:14.953Z,1.30
2018-06-29T08:44:15.181Z,1.30
2018-06-29T08:45:15.313Z,1.30
2018-06-29T08:46:15.486Z,1.30
2018-06-29T08:47:15.666Z,1.20
2018-06-29T08:48:15.838Z,1.30
2018-06-29T08:49:16.016Z,1.40
2018-06-29T08:50:16.185Z,1.50
2018-06-29T08:51:16.361Z,1.30
2018-06-29T08:52:16.610Z,1.20
2018-06-29T08:53:16.715Z,1.30
2018-06-29T08:54:16.899Z,1.30
2018-06-29T08:55:17.076Z,1.30
2018-06-29T08:56:17.250Z,1.20
2018-06-29T08:57:17.422Z,1.40
2018-06-29T08:58:17.603Z,1.40
2018-06-29T08:59:17.773Z,1.20
2018-06-29T09:00:17.959Z,1.30
2018-06-29T09:01:18.126Z,1.60
2018-06-29T09:02:18.312Z,1.20
2018-06-29T09:03:18.481Z,1.30
2018-06-29T09:04:18.661Z,1.20
2018-06-29T09:05:18.835Z,1.30
2018-06-29T09:06:19.014Z,1.20
2018-06-29T09:07:19.186Z,1.10
2018-06-29T09:08:19.363Z,1.20
2018-06-29T09:09:19.554Z,1.20
2018-06-29T09:10:19.731Z,1.20
2018-06-29T09:11:19.902Z,1.10
2018-06-29T09:12:20.085Z,1.40
2018-06-29T09:13:20.253Z,1.20
2018-06-29T09:14:20.428Z,1.20
2018-06-29T09:15:20.608Z,1.20
2018-06-29T09:16:20.786Z,1.30
2018-06-29T09:17:20.960Z,1.30
2018-06-29T09:18:21.135Z,1.30
2018-06-29T09:19:21.310Z,1.20
2018-06-29T09:20:21.484Z,1.30
2018-06-29T09:21:21.666Z,1.20
2018-06-29T09:22:21.841Z,1.30
2018-06-29T09:23:22.021Z,1.20
2018-06-29T09:24:22.258Z,1.20
2018-06-29T09:25:22.372Z,1.20
2018-06-29T09:26:22.547Z,1.10
2018-06-29T09:27:22.719Z,1.20
2018-06-29T09:28:22.890Z,1.20
2018-06-29T09:29:23.066Z,1.10
2018-06-29T09:30:23.242Z,1.20
2018-06-29T09:31:23.419Z,1.00
2018-06-29T09:32:23.600Z,1.20
2018-06-29T09:33:23.782Z,1.10
2018-06-29T09:34:23.954Z,1.20
2018-06-29T09:35:24.137Z,1.00
2018-06-29T09:36:24.371Z,1.20
2018-06-29T09:37:24.491Z,1.20
2018-06-29T09:38:24.675Z,1.10
2018-06-29T09:39:24.856Z,1.10
2018-06-29T09:40:25.033Z,1.20
2018-06-29T09:41:25.215Z,1.00
2018-06-29T09:42:25.423Z,1.10
2018-06-29T09:43:25.607Z,1.10
2018-06-29T09:44:25.752Z,1.20
2018-06-29T09:45:25.946Z,1.20
2018-06-29T09:46:26.131Z,1.10
2018-06-29T09:47:26.316Z,1.30
2018-06-29T09:48:26.492Z,1.10
2018-06-29T09:49:26.682Z,1.10
2018-06-29T09:50:26.865Z,1.10
2018-06-29T09:51:27.047Z,1.30
2018-06-29T09:52:27.234Z,1.20
2018-06-29T09:53:27.429Z,1.10
2018-06-29T09:54:27.614Z,1.30
2018-06-29T09:55:27.805Z,1.40
2018-06-29T09:56:27.991Z,1.00
2018-06-29T09:57:28.176Z,1.10
2018-06-29T09:58:28.362Z,1.10
2018-06-29T09:59:28.550Z,1.20
2018-06-29T10:00:28.734Z,1.30
2018-06-29T10:01:29.043Z,1.20
2018-06-29T10:02:31.690Z,1.20
2018-06-29T10:03:29.307Z,1.10
2018-06-29T10:04:29.495Z,1.20
2018-06-29T10:05:29.687Z,1.40
2018-06-29T10:06:29.892Z,1.20
2018-06-29T10:07:30.060Z,1.10
2018-06-29T10:08:30.253Z,1.10
2018-06-29T10:09:30.446Z,1.10
2018-06-29T10:10:30.639Z,1.10
2018-06-29T10:11:30.825Z,1.00
2018-06-29T10:12:31.012Z,1.20
2018-06-29T10:13:31.205Z,1.30
2018-06-29T10:14:31.479Z,1.10
2018-06-29T10:15:31.596Z,1.10
2018-06-29T10:16:31.786Z,1.10
2018-06-29T10:17:31.966Z,1.30
2018-06-29T10:18:32.169Z,1.10
2018-06-29T10:19:32.402Z,1.10
2018-06-29T10:20:32.547Z,1.30
2018-06-29T10:21:32.738Z,1.10
2018-06-29T10:22:33.022Z,1.30
2018-06-29T10:23:33.126Z,1.50
2018-06-29T10:24:33.309Z,1.10
2018-06-29T10:25:33.611Z,1.20
2018-06-29T10:26:33.692Z,1.00
2018-06-29T10:27:33.887Z,1.20
2018-06-29T10:28:34.088Z,1.20
2018-06-29T10:29:34.279Z,1.30
2018-06-29T10:30:34.471Z,1.30
2018-06-29T10:31:34.658Z,1.30
2018-06-29T10:32:34.850Z,1.00
2018-06-29T10:33:35.054Z,1.20
2018-06-29T10:34:35.243Z,1.10
2018-06-29T10:35:35.435Z,1.10
2018-06-29T10:36:35.630Z,1.20
2018-06-29T10:37:35.824Z,1.70
2018-06-29T10:38:36.018Z,1.30
2018-06-29T10:39:36.211Z,1.20
2018-06-29T10:40:36.403Z,1.40
2018-06-29T10:41:36.592Z,1.20
2018-06-29T10:42:36.786Z,1.20
2018-06-29T10:43:36.978Z,1.40
2018-06-29T10:44:37.177Z,1.20
2018-06-29T10:45:37.360Z,1.40
2018-06-29T10:46:37.564Z,1.40
2018-06-29T10:47:37.753Z,1.40
2018-06-29T10:48:37.953Z,1.40
2018-06-29T10:49:38.149Z,1.30
2018-06-29T10:50:38.347Z,1.50
2018-06-29T10:51:38.542Z,1.20
2018-06-29T10:52:38.729Z,1.30
2018-06-29T10:53:38.929Z,1.00
2018-06-29T10:54:39.123Z,1.20
2018-06-29T10:55:39.319Z,1.20
2018-06-29T10:56:39.512Z,1.30
2018-06-29T10:57:39.699Z,1.30
2018-06-29T10:58:39.956Z,1.50
2018-06-29T10:59:40.107Z,1.30
2018-06-29T11:00:40.295Z,1.40
2018-06-29T11:01:40.503Z,1.40
2018-06-29T11:02:40.694Z,1.20
2018-06-29T11:03:40.894Z,1.30
2018-06-29T11:04:41.088Z,1.20
2018-06-29T11:05:41.286Z,1.20
2018-06-29T11:06:41.483Z,1.40
2018-06-29T11:07:41.690Z,1.30
2018-06-29T11:08:41.876Z,1.30
2018-06-29T11:09:42.076Z,1.60
2018-06-29T11:10:42.276Z,1.30
2018-06-29T11:11:42.470Z,1.40
2018-06-29T11:12:42.670Z,1.30
2018-06-29T11:13:42.870Z,1.20
2018-06-29T11:14:43.066Z,1.30
2018-06-29T11:15:43.264Z,1.40
2018-06-29T11:16:43.457Z,1.50
2018-06-29T11:17:43.652Z,1.20
2018-06-29T11:18:43.851Z,1.30
2018-06-29T11:19:44.053Z,1.40
2018-06-29T11:20:44.252Z,1.40
2018-06-29T11:21:44.453Z,1.60
2018-06-29T11:22:44.648Z,1.60
2018-06-29T11:23:44.848Z,2.10
2018-06-29T11:24:45.041Z,1.70
2018-06-29T11:25:45.250Z,1.60
2018-06-29T11:26:45.448Z,1.50
2018-06-29T11:27:45.645Z,2.70
2018-06-29T11:28:45.843Z,2.60
2018-06-29T11:29:46.039Z,1.60
2018-06-29T11:30:46.238Z,1.40
2018-06-29T11:31:46.433Z,1.30
2018-06-29T11:32:46.633Z,1.30
2018-06-29T11:33:46.827Z,1.30
2018-06-29T11:34:47.036Z,1.70
2018-06-29T11:35:47.226Z,1.30
2018-06-29T11:36:47.481Z,1.60
2018-06-29T11:37:47.631Z,1.60
2018-06-29T11:38:47.817Z,1.50
2018-06-29T11:39:48.012Z,1.40
2018-06-29T11:40:48.214Z,1.40
2018-06-29T11:41:48.418Z,1.20
2018-06-29T11:42:48.615Z,1.40
2018-06-29T11:43:48.818Z,1.40
2018-06-29T11:44:49.016Z,1.30
2018-06-29T11:45:49.211Z,1.40
2018-06-29T11:46:49.407Z,1.30
2018-06-29T11:47:49.608Z,1.40
2018-06-29T11:48:49.806Z,1.50
2018-06-29T11:49:50.009Z,1.50
2018-06-29T11:50:50.208Z,1.40
2018-06-29T11:51:50.406Z,1.40
2018-06-29T11:52:50.647Z,1.30
2018-06-29T11:53:50.808Z,1.60
2018-06-29T11:54:51.000Z,1.70
2018-06-29T11:55:51.216Z,1.50
2018-06-29T11:56:51.414Z,1.40
2018-06-29T11:57:51.613Z,1.50
2018-06-29T11:58:51.816Z,1.40
2018-06-29T11:59:52.021Z,1.50
2018-06-29T12:00:52.234Z,1.60
2018-06-29T12:01:52.430Z,1.50
2018-06-29T12:02:52.640Z,1.60
2018-06-29T12:03:52.828Z,1.50
2018-06-29T12:04:53.032Z,1.60
2018-06-29T12:05:53.243Z,1.50
2018-06-29T12:06:53.519Z,1.50
2018-06-29T12:07:53.620Z,1.60
2018-06-29T12:08:53.822Z,2.00
2018-06-29T12:09:54.012Z,1.60
2018-06-29T12:10:54.216Z,1.70
2018-06-29T12:11:56.084Z,1.50
2018-06-29T12:12:54.543Z,1.80
2018-06-29T12:13:54.747Z,1.80
2018-06-29T12:14:54.958Z,1.70
2018-06-29T12:15:55.147Z,1.70
2018-06-29T12:16:55.353Z,1.70
2018-06-29T12:17:55.552Z,1.60
2018-06-29T12:18:55.747Z,1.70
2018-06-29T12:19:55.947Z,1.60
2018-06-29T12:20:56.146Z,1.60
2018-06-29T12:21:56.399Z,1.70
2018-06-29T12:22:56.599Z,1.70
2018-06-29T12:23:56.800Z,1.70
2018-06-29T12:24:57.003Z,1.70
2018-06-29T12:25:57.200Z,1.70
2018-06-29T12:26:57.405Z,1.60
2018-06-29T12:27:58.397Z,1.90
2018-06-29T12:28:57.798Z,1.70
2018-06-29T12:29:58.001Z,1.60
2018-06-29T12:30:58.194Z,1.80
2018-06-29T12:31:58.398Z,1.80
2018-06-29T12:32:58.599Z,1.70
2018-06-29T12:33:58.812Z,1.60
2018-06-29T12:34:59.039Z,1.80
2018-06-29T12:36:52.381Z,1.80
2018-06-29T12:37:52.688Z,1.60
2018-06-29T12:38:53.005Z,1.70
2018-06-29T12:39:52.996Z,1.50
2018-06-29T12:40:53.580Z,1.80
2018-06-29T12:41:53.484Z,1.60
2018-06-29T12:42:54.025Z,1.60
2018-06-29T12:43:54.463Z,1.70
2018-06-29T12:44:54.143Z,1.40
2018-06-29T12:45:54.575Z,1.50
2018-06-29T12:46:54.436Z,1.50
2018-06-29T12:47:54.767Z,1.40
2018-06-29T12:48:55.094Z,1.40
2018-06-29T12:49:55.041Z,1.30
2018-06-29T12:50:55.362Z,1.30
2018-06-29T12:51:55.425Z,1.30
2018-06-29T12:52:55.596Z,1.40
2018-06-29T12:53:55.791Z,1.40
2018-06-29T12:54:55.986Z,1.30
2018-06-29T12:55:56.224Z,1.30
2018-06-29T12:56:56.372Z,1.40
2018-06-29T12:57:56.632Z,1.10
2018-06-29T12:58:56.753Z,1.30
2018-06-29T12:59:56.949Z,1.20
2018-06-29T13:00:57.141Z,1.20
2018-06-29T13:01:57.331Z,1.10
2018-06-29T13:02:57.529Z,1.30
2018-06-29T13:03:57.713Z,1.20
2018-06-29T13:04:57.908Z,1.30
2018-06-29T13:05:58.098Z,1.20
2018-06-29T13:06:58.288Z,1.30
2018-06-29T13:07:58.475Z,1.30
2018-06-29T13:08:58.659Z,1.20
2018-06-29T13:09:58.846Z,1.30
2018-06-29T13:10:59.041Z,1.30
2018-06-29T13:11:59.227Z,1.20
2018-06-29T13:12:59.416Z,1.30
2018-06-29T13:13:59.605Z,1.30
2018-06-29T13:14:59.799Z,1.40
2018-06-29T13:15:59.984Z,1.30
2018-06-29T13:17:00.173Z,1.40
2018-06-29T13:18:00.365Z,1.20
2018-06-29T13:19:00.553Z,1.20
2018-06-29T13:20:00.739Z,1.20
2018-06-29T13:21:00.926Z,1.30
2018-06-29T13:22:01.118Z,1.40
2018-06-29T13:23:01.297Z,1.30